sensor_id;sensor_type;location;lat;lon;timestamp;temperature;humidity
52859;DHT22;38721;53.098;6.596;2023-04-24T00:00:27;11.40;99.90
52859;DHT22;38721;53.098;6.596;2023-04-24T00:02:53;11.40;99.90
52859;DHT22;38721;53.098;6.596;2023-04-24T00:05:26;11.40;99.90
52859;DHT22;38721;53.098;6.596;2023-04-24T00:07:51;11.30;99.90
52859;DHT22;38721;53.098;6.596;2023-04-24T00:10:20;11.30;99.90
52859;DHT22;38721;53.098;6.596;2023-04-24T00:12:46;11.10;99.90
52859;DHT22;38721;53.098;6.596;2023-04-24T00:15:12;11.00;99.90
52859;DHT22;38721;53.098;6.596;2023-04-24T00:17:38;11.00;99.90
52859;DHT22;38721;53.098;6.596;2023-04-24T00:20:05;10.90;99.90
52859;DHT22;38721;53.098;6.596;2023-04-24T00:22:32;10.90;99.90
52859;DHT22;38721;53.098;6.596;2023-04-24T00:24:58;10.90;99.90
52859;DHT22;38721;53.098;6.596;2023-04-24T00:27:23;10.90;99.90
52859;DHT22;38721;53.098;6.596;2023-04-24T00:29:49;10.90;99.90
52859;DHT22;38721;53.098;6.596;2023-04-24T00:32:15;10.80;99.90
52859;DHT22;38721;53.098;6.596;2023-04-24T00:34:41;10.80;99.90
52859;DHT22;38721;53.098;6.596;2023-04-24T00:37:07;10.70;99.90
52859;DHT22;38721;53.098;6.596;2023-04-24T00:39:33;10.70;99.90
52859;DHT22;38721;53.098;6.596;2023-04-24T00:41:58;10.70;99.90
52859;DHT22;38721;53.098;6.596;2023-04-24T00:44:24;10.70;99.90
52859;DHT22;38721;53.098;6.596;2023-04-24T00:46:51;10.60;99.90
52859;DHT22;38721;53.098;6.596;2023-04-24T00:49:20;10.60;99.90
52859;DHT22;38721;53.098;6.596;2023-04-24T00:51:46;10.50;99.90
52859;DHT22;38721;53.098;6.596;2023-04-24T00:54:15;10.60;99.90
52859;DHT22;38721;53.098;6.596;2023-04-24T00:56:42;10.60;99.90
52859;DHT22;38721;53.098;6.596;2023-04-24T00:59:08;10.50;99.90
52859;DHT22;38721;53.098;6.596;2023-04-24T01:01:34;10.50;99.90
52859;DHT22;38721;53.098;6.596;2023-04-24T01:04:00;10.50;99.90
52859;DHT22;38721;53.098;6.596;2023-04-24T01:06:29;10.40;99.90
52859;DHT22;38721;53.098;6.596;2023-04-24T01:08:57;10.50;99.90
52859;DHT22;38721;53.098;6.596;2023-04-24T01:11:25;10.50;99.90
52859;DHT22;38721;53.098;6.596;2023-04-24T01:13:51;10.50;99.90
52859;DHT22;38721;53.098;6.596;2023-04-24T01:16:20;10.50;99.90
52859;DHT22;38721;53.098;6.596;2023-04-24T01:18:46;10.40;99.90
52859;DHT22;38721;53.098;6.596;2023-04-24T01:21:16;10.40;99.90
52859;DHT22;38721;53.098;6.596;2023-04-24T01:23:45;10.40;99.90
52859;DHT22;38721;53.098;6.596;2023-04-24T01:26:15;10.40;99.90
52859;DHT22;38721;53.098;6.596;2023-04-24T01:28:41;10.50;99.90
52859;DHT22;38721;53.098;6.596;2023-04-24T01:31:07;10.40;99.90
52859;DHT22;38721;53.098;6.596;2023-04-24T01:33:36;10.50;99.90
52859;DHT22;38721;53.098;6.596;2023-04-24T01:36:02;10.40;99.90
52859;DHT22;38721;53.098;6.596;2023-04-24T01:38:28;10.40;99.90
52859;DHT22;38721;53.098;6.596;2023-04-24T01:40:53;10.40;99.90
52859;DHT22;38721;53.098;6.596;2023-04-24T01:43:20;10.40;99.90
52859;DHT22;38721;53.098;6.596;2023-04-24T01:45:45;10.50;99.90
52859;DHT22;38721;53.098;6.596;2023-04-24T01:48:12;10.40;99.90
52859;DHT22;38721;53.098;6.596;2023-04-24T01:50:38;10.40;99.90
52859;DHT22;38721;53.098;6.596;2023-04-24T01:53:03;10.50;99.90
52859;DHT22;38721;53.098;6.596;2023-04-24T01:55:32;10.40;99.90
52859;DHT22;38721;53.098;6.596;2023-04-24T01:57:59;10.50;99.90
52859;DHT22;38721;53.098;6.596;2023-04-24T02:00:25;10.50;99.90
52859;DHT22;38721;53.098;6.596;2023-04-24T02:02:51;10.50;99.90
52859;DHT22;38721;53.098;6.596;2023-04-24T02:05:17;10.50;99.90
52859;DHT22;38721;53.098;6.596;2023-04-24T02:07:43;10.50;99.90
52859;DHT22;38721;53.098;6.596;2023-04-24T02:10:09;10.50;99.90
52859;DHT22;38721;53.098;6.596;2023-04-24T02:12:38;10.50;99.90
52859;DHT22;38721;53.098;6.596;2023-04-24T02:15:04;10.50;99.90
52859;DHT22;38721;53.098;6.596;2023-04-24T02:17:30;10.50;99.90
52859;DHT22;38721;53.098;6.596;2023-04-24T02:19:56;10.50;99.90
52859;DHT22;38721;53.098;6.596;2023-04-24T02:22:22;10.50;99.90
52859;DHT22;38721;53.098;6.596;2023-04-24T02:24:52;10.50;99.90
52859;DHT22;38721;53.098;6.596;2023-04-24T02:27:18;10.50;99.90
52859;DHT22;38721;53.098;6.596;2023-04-24T02:29:43;10.50;99.90
52859;DHT22;38721;53.098;6.596;2023-04-24T02:32:10;10.50;99.90
52859;DHT22;38721;53.098;6.596;2023-04-24T02:34:37;10.50;99.90
52859;DHT22;38721;53.098;6.596;2023-04-24T02:37:03;10.50;99.90
52859;DHT22;38721;53.098;6.596;2023-04-24T02:39:38;10.50;99.90
52859;DHT22;38721;53.098;6.596;2023-04-24T02:42:03;10.60;99.90
52859;DHT22;38721;53.098;6.596;2023-04-24T02:44:29;10.60;99.90
52859;DHT22;38721;53.098;6.596;2023-04-24T02:46:55;10.60;99.90
52859;DHT22;38721;53.098;6.596;2023-04-24T02:49:21;10.60;99.90
52859;DHT22;38721;53.098;6.596;2023-04-24T02:51:46;10.60;99.90
52859;DHT22;38721;53.098;6.596;2023-04-24T02:54:12;10.60;99.90
52859;DHT22;38721;53.098;6.596;2023-04-24T02:56:40;10.60;99.90
52859;DHT22;38721;53.098;6.596;2023-04-24T02:59:06;10.50;99.90
52859;DHT22;38721;53.098;6.596;2023-04-24T03:01:31;10.60;99.90
52859;DHT22;38721;53.098;6.596;2023-04-24T03:03:57;10.60;99.90
52859;DHT22;38721;53.098;6.596;2023-04-24T03:06:23;10.60;99.90
52859;DHT22;38721;53.098;6.596;2023-04-24T03:08:49;10.60;99.90
52859;DHT22;38721;53.098;6.596;2023-04-24T03:11:14;10.60;99.90
52859;DHT22;38721;53.098;6.596;2023-04-24T03:13:40;10.50;99.90
52859;DHT22;38721;53.098;6.596;2023-04-24T03:16:05;10.50;99.90
52859;DHT22;38721;53.098;6.596;2023-04-24T03:18:31;10.50;99.90
52859;DHT22;38721;53.098;6.596;2023-04-24T03:20:57;10.50;99.90
52859;DHT22;38721;53.098;6.596;2023-04-24T03:23:22;10.40;99.90
52859;DHT22;38721;53.098;6.596;2023-04-24T03:25:48;10.40;99.90
52859;DHT22;38721;53.098;6.596;2023-04-24T03:28:14;10.40;99.90
52859;DHT22;38721;53.098;6.596;2023-04-24T03:30:40;10.40;99.90
52859;DHT22;38721;53.098;6.596;2023-04-24T03:33:06;10.40;99.90
52859;DHT22;38721;53.098;6.596;2023-04-24T03:35:32;10.40;99.90
52859;DHT22;38721;53.098;6.596;2023-04-24T03:37:57;10.40;99.90
52859;DHT22;38721;53.098;6.596;2023-04-24T03:40:23;10.40;99.90
52859;DHT22;38721;53.098;6.596;2023-04-24T03:42:49;10.40;99.90
52859;DHT22;38721;53.098;6.596;2023-04-24T03:45:14;10.40;99.90
52859;DHT22;38721;53.098;6.596;2023-04-24T03:47:40;10.30;99.90
52859;DHT22;38721;53.098;6.596;2023-04-24T03:50:06;10.30;99.90
52859;DHT22;38721;53.098;6.596;2023-04-24T03:52:31;10.30;99.90
52859;DHT22;38721;53.098;6.596;2023-04-24T03:54:58;10.30;99.90
52859;DHT22;38721;53.098;6.596;2023-04-24T03:57:23;10.30;99.90
52859;DHT22;38721;53.098;6.596;2023-04-24T03:59:49;10.30;99.90
52859;DHT22;38721;53.098;6.596;2023-04-24T04:02:15;10.30;99.90
52859;DHT22;38721;53.098;6.596;2023-04-24T04:04:40;10.30;99.90
52859;DHT22;38721;53.098;6.596;2023-04-24T04:07:06;10.30;99.90
52859;DHT22;38721;53.098;6.596;2023-04-24T04:09:32;10.20;99.90
52859;DHT22;38721;53.098;6.596;2023-04-24T04:11:58;10.30;99.90
52859;DHT22;38721;53.098;6.596;2023-04-24T04:14:24;10.20;99.90
52859;DHT22;38721;53.098;6.596;2023-04-24T04:16:53;10.30;99.90
52859;DHT22;38721;53.098;6.596;2023-04-24T04:19:18;10.30;99.90
52859;DHT22;38721;53.098;6.596;2023-04-24T04:21:45;10.20;99.90
52859;DHT22;38721;53.098;6.596;2023-04-24T04:24:11;10.20;99.90
52859;DHT22;38721;53.098;6.596;2023-04-24T04:26:37;10.20;99.90
52859;DHT22;38721;53.098;6.596;2023-04-24T04:29:03;10.20;99.90
52859;DHT22;38721;53.098;6.596;2023-04-24T04:31:29;10.20;99.90
52859;DHT22;38721;53.098;6.596;2023-04-24T04:33:55;10.20;99.90
52859;DHT22;38721;53.098;6.596;2023-04-24T04:36:21;10.20;99.90
52859;DHT22;38721;53.098;6.596;2023-04-24T04:38:47;10.20;99.90
52859;DHT22;38721;53.098;6.596;2023-04-24T04:41:12;10.20;99.90
52859;DHT22;38721;53.098;6.596;2023-04-24T04:43:38;10.20;99.90
52859;DHT22;38721;53.098;6.596;2023-04-24T04:46:06;10.20;99.90
52859;DHT22;38721;53.098;6.596;2023-04-24T04:48:36;10.30;99.90
52859;DHT22;38721;53.098;6.596;2023-04-24T04:51:03;10.20;99.90
52859;DHT22;38721;53.098;6.596;2023-04-24T04:53:29;10.20;99.90
52859;DHT22;38721;53.098;6.596;2023-04-24T04:55:55;10.20;99.90
52859;DHT22;38721;53.098;6.596;2023-04-24T04:58:20;10.30;99.90
52859;DHT22;38721;53.098;6.596;2023-04-24T05:00:46;10.30;99.90
52859;DHT22;38721;53.098;6.596;2023-04-24T05:03:12;10.30;99.90
52859;DHT22;38721;53.098;6.596;2023-04-24T05:05:40;10.30;99.90
52859;DHT22;38721;53.098;6.596;2023-04-24T05:08:07;10.30;99.90
52859;DHT22;38721;53.098;6.596;2023-04-24T05:10:34;10.30;99.90
52859;DHT22;38721;53.098;6.596;2023-04-24T05:13:02;10.30;99.90
52859;DHT22;38721;53.098;6.596;2023-04-24T05:15:28;10.30;99.90
52859;DHT22;38721;53.098;6.596;2023-04-24T05:18:00;10.30;99.90
52859;DHT22;38721;53.098;6.596;2023-04-24T05:20:28;10.30;99.90
52859;DHT22;38721;53.098;6.596;2023-04-24T05:22:57;10.30;99.90
52859;DHT22;38721;53.098;6.596;2023-04-24T05:25:22;10.30;99.90
52859;DHT22;38721;53.098;6.596;2023-04-24T05:27:48;10.30;99.90
52859;DHT22;38721;53.098;6.596;2023-04-24T05:30:14;10.20;99.90
52859;DHT22;38721;53.098;6.596;2023-04-24T05:32:39;10.30;99.90
52859;DHT22;38721;53.098;6.596;2023-04-24T05:35:05;10.30;99.90
52859;DHT22;38721;53.098;6.596;2023-04-24T05:37:33;10.40;99.90
52859;DHT22;38721;53.098;6.596;2023-04-24T05:39:59;10.40;99.90
52859;DHT22;38721;53.098;6.596;2023-04-24T05:42:25;10.40;99.90
52859;DHT22;38721;53.098;6.596;2023-04-24T05:44:50;10.50;99.90
52859;DHT22;38721;53.098;6.596;2023-04-24T05:47:16;10.50;99.90
52859;DHT22;38721;53.098;6.596;2023-04-24T05:49:42;10.60;99.90
52859;DHT22;38721;53.098;6.596;2023-04-24T05:52:07;10.60;99.90
52859;DHT22;38721;53.098;6.596;2023-04-24T05:54:34;10.60;99.90
52859;DHT22;38721;53.098;6.596;2023-04-24T05:57:00;10.60;99.90
52859;DHT22;38721;53.098;6.596;2023-04-24T05:59:33;10.60;99.90
52859;DHT22;38721;53.098;6.596;2023-04-24T06:01:58;10.50;99.90
52859;DHT22;38721;53.098;6.596;2023-04-24T06:04:24;10.60;99.90
52859;DHT22;38721;53.098;6.596;2023-04-24T06:06:50;10.60;99.90
52859;DHT22;38721;53.098;6.596;2023-04-24T06:09:16;10.60;99.90
52859;DHT22;38721;53.098;6.596;2023-04-24T06:11:43;10.60;99.90
52859;DHT22;38721;53.098;6.596;2023-04-24T06:14:08;10.60;99.90
52859;DHT22;38721;53.098;6.596;2023-04-24T06:16:35;10.50;99.90
52859;DHT22;38721;53.098;6.596;2023-04-24T06:19:01;10.50;99.90
52859;DHT22;38721;53.098;6.596;2023-04-24T06:21:26;10.40;99.90
52859;DHT22;38721;53.098;6.596;2023-04-24T06:23:53;10.30;99.90
52859;DHT22;38721;53.098;6.596;2023-04-24T06:26:19;10.30;99.90
52859;DHT22;38721;53.098;6.596;2023-04-24T06:28:45;10.30;99.90
52859;DHT22;38721;53.098;6.596;2023-04-24T06:31:10;10.40;99.90
52859;DHT22;38721;53.098;6.596;2023-04-24T06:33:36;10.40;99.90
52859;DHT22;38721;53.098;6.596;2023-04-24T06:36:05;10.40;99.90
52859;DHT22;38721;53.098;6.596;2023-04-24T06:38:31;10.40;99.90
52859;DHT22;38721;53.098;6.596;2023-04-24T06:40:57;10.50;99.90
52859;DHT22;38721;53.098;6.596;2023-04-24T06:43:23;10.60;99.90
52859;DHT22;38721;53.098;6.596;2023-04-24T06:45:48;10.50;99.90
52859;DHT22;38721;53.098;6.596;2023-04-24T06:48:14;10.60;99.90
52859;DHT22;38721;53.098;6.596;2023-04-24T06:50:40;10.60;99.90
52859;DHT22;38721;53.098;6.596;2023-04-24T06:53:09;10.60;99.90
52859;DHT22;38721;53.098;6.596;2023-04-24T06:55:36;10.60;99.90
52859;DHT22;38721;53.098;6.596;2023-04-24T06:58:02;10.50;99.90
52859;DHT22;38721;53.098;6.596;2023-04-24T07:00:28;10.50;99.90
52859;DHT22;38721;53.098;6.596;2023-04-24T07:03:01;10.50;99.90
52859;DHT22;38721;53.098;6.596;2023-04-24T07:05:33;10.40;99.90
52859;DHT22;38721;53.098;6.596;2023-04-24T07:08:00;10.40;99.90
52859;DHT22;38721;53.098;6.596;2023-04-24T07:10:27;10.40;99.90
52859;DHT22;38721;53.098;6.596;2023-04-24T07:12:54;10.30;99.90
52859;DHT22;38721;53.098;6.596;2023-04-24T07:15:28;10.40;99.90
52859;DHT22;38721;53.098;6.596;2023-04-24T07:17:57;10.40;99.90
52859;DHT22;38721;53.098;6.596;2023-04-24T07:20:22;10.40;99.90
52859;DHT22;38721;53.098;6.596;2023-04-24T07:22:48;10.40;99.90
52859;DHT22;38721;53.098;6.596;2023-04-24T07:25:14;10.40;99.90
52859;DHT22;38721;53.098;6.596;2023-04-24T07:27:40;10.40;99.90
52859;DHT22;38721;53.098;6.596;2023-04-24T07:30:06;10.50;99.90
52859;DHT22;38721;53.098;6.596;2023-04-24T07:32:32;10.50;99.90
52859;DHT22;38721;53.098;6.596;2023-04-24T07:34:58;10.40;99.90
52859;DHT22;38721;53.098;6.596;2023-04-24T07:37:24;10.50;99.90
52859;DHT22;38721;53.098;6.596;2023-04-24T07:39:49;10.50;99.90
52859;DHT22;38721;53.098;6.596;2023-04-24T07:42:15;10.40;99.90
52859;DHT22;38721;53.098;6.596;2023-04-24T07:44:41;10.40;99.90
52859;DHT22;38721;53.098;6.596;2023-04-24T07:47:06;10.30;99.90
52859;DHT22;38721;53.098;6.596;2023-04-24T07:49:32;10.30;99.90
52859;DHT22;38721;53.098;6.596;2023-04-24T07:52:00;10.30;99.90
52859;DHT22;38721;53.098;6.596;2023-04-24T07:54:28;10.10;99.90
52859;DHT22;38721;53.098;6.596;2023-04-24T07:56:54;10.00;99.90
52859;DHT22;38721;53.098;6.596;2023-04-24T07:59:19;10.00;99.90
52859;DHT22;38721;53.098;6.596;2023-04-24T08:01:45;10.10;99.90
52859;DHT22;38721;53.098;6.596;2023-04-24T08:04:11;9.90;99.90
52859;DHT22;38721;53.098;6.596;2023-04-24T08:06:36;10.00;99.90
52859;DHT22;38721;53.098;6.596;2023-04-24T08:09:02;9.90;99.90
52859;DHT22;38721;53.098;6.596;2023-04-24T08:11:28;9.90;99.90
52859;DHT22;38721;53.098;6.596;2023-04-24T08:13:57;9.90;99.90
52859;DHT22;38721;53.098;6.596;2023-04-24T08:16:22;10.00;99.90
52859;DHT22;38721;53.098;6.596;2023-04-24T08:18:49;9.90;99.90
52859;DHT22;38721;53.098;6.596;2023-04-24T08:21:15;9.90;99.90
52859;DHT22;38721;53.098;6.596;2023-04-24T08:23:45;9.80;99.90
52859;DHT22;38721;53.098;6.596;2023-04-24T08:26:11;9.70;99.90
52859;DHT22;38721;53.098;6.596;2023-04-24T08:28:38;9.60;99.90
52859;DHT22;38721;53.098;6.596;2023-04-24T08:31:03;9.60;99.90
52859;DHT22;38721;53.098;6.596;2023-04-24T08:33:29;9.60;99.90
52859;DHT22;38721;53.098;6.596;2023-04-24T08:36:04;9.60;99.90
52859;DHT22;38721;53.098;6.596;2023-04-24T08:38:30;9.50;99.90
52859;DHT22;38721;53.098;6.596;2023-04-24T08:40:58;9.40;99.90
52859;DHT22;38721;53.098;6.596;2023-04-24T08:43:25;9.40;99.90
52859;DHT22;38721;53.098;6.596;2023-04-24T08:45:52;9.40;99.90
52859;DHT22;38721;53.098;6.596;2023-04-24T08:48:22;9.40;99.90
52859;DHT22;38721;53.098;6.596;2023-04-24T08:50:50;9.30;99.90
52859;DHT22;38721;53.098;6.596;2023-04-24T08:53:16;9.30;99.90
52859;DHT22;38721;53.098;6.596;2023-04-24T08:55:43;9.20;99.90
52859;DHT22;38721;53.098;6.596;2023-04-24T08:58:12;9.20;99.90
52859;DHT22;38721;53.098;6.596;2023-04-24T09:00:39;9.20;99.90
52859;DHT22;38721;53.098;6.596;2023-04-24T09:03:07;9.20;99.90
52859;DHT22;38721;53.098;6.596;2023-04-24T09:05:33;9.20;99.90
52859;DHT22;38721;53.098;6.596;2023-04-24T09:07:59;9.10;99.90
52859;DHT22;38721;53.098;6.596;2023-04-24T09:10:29;9.10;99.90
52859;DHT22;38721;53.098;6.596;2023-04-24T09:12:56;9.00;99.90
52859;DHT22;38721;53.098;6.596;2023-04-24T09:15:24;9.00;99.90
52859;DHT22;38721;53.098;6.596;2023-04-24T09:17:50;9.00;99.90
52859;DHT22;38721;53.098;6.596;2023-04-24T09:20:16;9.10;99.90
52859;DHT22;38721;53.098;6.596;2023-04-24T09:22:42;9.10;99.90
52859;DHT22;38721;53.098;6.596;2023-04-24T09:25:10;9.10;99.90
52859;DHT22;38721;53.098;6.596;2023-04-24T09:27:43;9.10;99.90
52859;DHT22;38721;53.098;6.596;2023-04-24T09:30:14;9.10;99.90
52859;DHT22;38721;53.098;6.596;2023-04-24T09:32:46;9.10;99.90
52859;DHT22;38721;53.098;6.596;2023-04-24T09:35:13;9.10;99.90
52859;DHT22;38721;53.098;6.596;2023-04-24T09:37:44;9.20;99.90
52859;DHT22;38721;53.098;6.596;2023-04-24T09:40:17;9.20;99.90
52859;DHT22;38721;53.098;6.596;2023-04-24T09:42:53;9.20;99.90
52859;DHT22;38721;53.098;6.596;2023-04-24T09:45:19;9.20;99.90
52859;DHT22;38721;53.098;6.596;2023-04-24T09:47:45;9.20;99.90
52859;DHT22;38721;53.098;6.596;2023-04-24T09:50:14;9.20;99.90
52859;DHT22;38721;53.098;6.596;2023-04-24T09:52:44;9.20;99.90
52859;DHT22;38721;53.098;6.596;2023-04-24T09:55:19;9.20;99.90
52859;DHT22;38721;53.098;6.596;2023-04-24T09:57:52;9.30;99.90
52859;DHT22;38721;53.098;6.596;2023-04-24T10:00:21;9.30;99.90
52859;DHT22;38721;53.098;6.596;2023-04-24T10:02:49;9.30;99.90
52859;DHT22;38721;53.098;6.596;2023-04-24T10:05:16;9.40;99.90
52859;DHT22;38721;53.098;6.596;2023-04-24T10:07:43;9.50;99.90
52859;DHT22;38721;53.098;6.596;2023-04-24T10:10:09;9.60;99.90
52859;DHT22;38721;53.098;6.596;2023-04-24T10:12:35;9.70;99.90
52859;DHT22;38721;53.098;6.596;2023-04-24T10:15:02;9.70;99.90
52859;DHT22;38721;53.098;6.596;2023-04-24T10:17:28;9.70;99.90
52859;DHT22;38721;53.098;6.596;2023-04-24T10:19:55;9.80;99.90
52859;DHT22;38721;53.098;6.596;2023-04-24T10:22:21;9.80;99.90
52859;DHT22;38721;53.098;6.596;2023-04-24T10:24:49;9.90;99.90
52859;DHT22;38721;53.098;6.596;2023-04-24T10:27:20;9.90;99.90
52859;DHT22;38721;53.098;6.596;2023-04-24T10:29:47;9.90;99.90
52859;DHT22;38721;53.098;6.596;2023-04-24T10:32:15;10.00;99.90
52859;DHT22;38721;53.098;6.596;2023-04-24T10:34:43;9.90;99.90
52859;DHT22;38721;53.098;6.596;2023-04-24T10:37:10;9.90;99.90
52859;DHT22;38721;53.098;6.596;2023-04-24T10:39:36;9.90;99.90
52859;DHT22;38721;53.098;6.596;2023-04-24T10:42:16;10.00;99.90
52859;DHT22;38721;53.098;6.596;2023-04-24T10:44:42;10.00;99.90
52859;DHT22;38721;53.098;6.596;2023-04-24T10:47:13;10.00;99.90
52859;DHT22;38721;53.098;6.596;2023-04-24T10:49:40;10.10;99.90
52859;DHT22;38721;53.098;6.596;2023-04-24T10:52:05;10.20;99.90
52859;DHT22;38721;53.098;6.596;2023-04-24T10:54:36;10.30;99.90
52859;DHT22;38721;53.098;6.596;2023-04-24T11:00:16;10.20;99.90
52859;DHT22;38721;53.098;6.596;2023-04-24T11:02:46;10.20;99.90
52859;DHT22;38721;53.098;6.596;2023-04-24T11:05:15;10.20;99.90
52859;DHT22;38721;53.098;6.596;2023-04-24T11:11:00;10.30;99.90
52859;DHT22;38721;53.098;6.596;2023-04-24T11:13:28;10.30;99.90
52859;DHT22;38721;53.098;6.596;2023-04-24T11:18:51;10.10;99.90
52859;DHT22;38721;53.098;6.596;2023-04-24T11:21:18;10.00;99.90
52859;DHT22;38721;53.098;6.596;2023-04-24T11:23:45;9.90;99.90
52859;DHT22;38721;53.098;6.596;2023-04-24T11:26:22;9.90;99.90
52859;DHT22;38721;53.098;6.596;2023-04-24T11:29:06;9.90;99.90
52859;DHT22;38721;53.098;6.596;2023-04-24T11:31:44;9.80;99.90
52859;DHT22;38721;53.098;6.596;2023-04-24T11:34:20;9.90;99.90
52859;DHT22;38721;53.098;6.596;2023-04-24T11:36:46;10.00;99.90
52859;DHT22;38721;53.098;6.596;2023-04-24T11:39:18;10.00;99.90
52859;DHT22;38721;53.098;6.596;2023-04-24T11:41:43;10.20;99.90
52859;DHT22;38721;53.098;6.596;2023-04-24T11:44:09;10.30;99.90
52859;DHT22;38721;53.098;6.596;2023-04-24T11:46:36;10.30;99.90
52859;DHT22;38721;53.098;6.596;2023-04-24T11:49:05;10.40;99.90
52859;DHT22;38721;53.098;6.596;2023-04-24T11:51:31;10.30;99.90
52859;DHT22;38721;53.098;6.596;2023-04-24T11:53:57;10.20;99.90
52859;DHT22;38721;53.098;6.596;2023-04-24T11:56:23;10.20;99.90
52859;DHT22;38721;53.098;6.596;2023-04-24T11:58:52;10.10;99.90
52859;DHT22;38721;53.098;6.596;2023-04-24T12:01:19;10.10;99.90
52859;DHT22;38721;53.098;6.596;2023-04-24T12:03:59;10.00;99.90
52859;DHT22;38721;53.098;6.596;2023-04-24T12:06:26;10.00;99.90
52859;DHT22;38721;53.098;6.596;2023-04-24T12:08:52;9.90;99.90
52859;DHT22;38721;53.098;6.596;2023-04-24T12:11:20;9.60;99.90
52859;DHT22;38721;53.098;6.596;2023-04-24T12:13:46;9.50;99.90
52859;DHT22;38721;53.098;6.596;2023-04-24T12:16:12;9.40;99.90
52859;DHT22;38721;53.098;6.596;2023-04-24T12:18:42;9.50;99.90
52859;DHT22;38721;53.098;6.596;2023-04-24T12:21:20;9.70;99.90
52859;DHT22;38721;53.098;6.596;2023-04-24T12:23:46;9.70;99.90
52859;DHT22;38721;53.098;6.596;2023-04-24T12:26:19;9.60;99.90
52859;DHT22;38721;53.098;6.596;2023-04-24T12:28:49;9.60;99.90
52859;DHT22;38721;53.098;6.596;2023-04-24T12:31:16;9.80;99.90
52859;DHT22;38721;53.098;6.596;2023-04-24T12:33:42;9.70;99.90
52859;DHT22;38721;53.098;6.596;2023-04-24T12:36:12;9.70;99.90
52859;DHT22;38721;53.098;6.596;2023-04-24T12:38:38;9.70;99.90
52859;DHT22;38721;53.098;6.596;2023-04-24T12:41:09;9.90;99.90
52859;DHT22;38721;53.098;6.596;2023-04-24T12:43:35;10.00;99.90
52859;DHT22;38721;53.098;6.596;2023-04-24T12:46:02;10.10;99.90
52859;DHT22;38721;53.098;6.596;2023-04-24T12:48:28;10.10;99.90
52859;DHT22;38721;53.098;6.596;2023-04-24T12:50:54;10.00;99.90
52859;DHT22;38721;53.098;6.596;2023-04-24T12:53:24;10.10;99.90
52859;DHT22;38721;53.098;6.596;2023-04-24T12:55:52;10.00;99.90
52859;DHT22;38721;53.098;6.596;2023-04-24T12:58:21;10.10;99.90
52859;DHT22;38721;53.098;6.596;2023-04-24T13:00:48;10.20;99.90
52859;DHT22;38721;53.098;6.596;2023-04-24T13:03:19;10.30;99.90
52859;DHT22;38721;53.098;6.596;2023-04-24T13:05:47;10.20;99.90
52859;DHT22;38721;53.098;6.596;2023-04-24T13:08:13;10.10;99.90
52859;DHT22;38721;53.098;6.596;2023-04-24T13:10:39;10.00;99.90
52859;DHT22;38721;53.098;6.596;2023-04-24T13:13:05;9.80;99.90
52859;DHT22;38721;53.098;6.596;2023-04-24T13:15:31;9.70;99.90
52859;DHT22;38721;53.098;6.596;2023-04-24T13:17:57;9.70;99.90
52859;DHT22;38721;53.098;6.596;2023-04-24T13:20:22;9.70;99.90
52859;DHT22;38721;53.098;6.596;2023-04-24T13:22:48;9.80;99.90
52859;DHT22;38721;53.098;6.596;2023-04-24T13:25:14;10.00;99.90
52859;DHT22;38721;53.098;6.596;2023-04-24T13:27:42;10.10;99.90
52859;DHT22;38721;53.098;6.596;2023-04-24T13:30:08;10.20;99.90
52859;DHT22;38721;53.098;6.596;2023-04-24T13:32:37;10.20;99.90
52859;DHT22;38721;53.098;6.596;2023-04-24T13:35:03;10.30;99.90
52859;DHT22;38721;53.098;6.596;2023-04-24T13:37:29;10.30;99.90
52859;DHT22;38721;53.098;6.596;2023-04-24T13:39:55;10.20;99.90
52859;DHT22;38721;53.098;6.596;2023-04-24T13:42:20;10.20;99.90
52859;DHT22;38721;53.098;6.596;2023-04-24T13:44:46;10.10;99.90
52859;DHT22;38721;53.098;6.596;2023-04-24T13:47:11;10.00;99.90
52859;DHT22;38721;53.098;6.596;2023-04-24T13:49:37;9.90;99.90
52859;DHT22;38721;53.098;6.596;2023-04-24T13:52:03;9.90;99.90
52859;DHT22;38721;53.098;6.596;2023-04-24T13:54:28;9.90;99.90
52859;DHT22;38721;53.098;6.596;2023-04-24T13:56:57;9.90;99.90
52859;DHT22;38721;53.098;6.596;2023-04-24T13:59:23;10.00;99.90
52859;DHT22;38721;53.098;6.596;2023-04-24T14:01:49;10.00;99.90
52859;DHT22;38721;53.098;6.596;2023-04-24T14:04:15;10.00;99.90
52859;DHT22;38721;53.098;6.596;2023-04-24T14:06:46;9.90;99.90
52859;DHT22;38721;53.098;6.596;2023-04-24T14:09:12;9.80;99.90
52859;DHT22;38721;53.098;6.596;2023-04-24T14:11:38;9.80;99.90
52859;DHT22;38721;53.098;6.596;2023-04-24T14:14:04;9.70;99.90
52859;DHT22;38721;53.098;6.596;2023-04-24T14:16:29;9.60;99.90
52859;DHT22;38721;53.098;6.596;2023-04-24T14:18:55;9.60;99.90
52859;DHT22;38721;53.098;6.596;2023-04-24T14:21:21;9.40;99.90
52859;DHT22;38721;53.098;6.596;2023-04-24T14:23:47;9.30;99.90
52859;DHT22;38721;53.098;6.596;2023-04-24T14:26:12;9.20;99.90
52859;DHT22;38721;53.098;6.596;2023-04-24T14:28:38;9.30;99.90
52859;DHT22;38721;53.098;6.596;2023-04-24T14:31:04;9.30;99.90
52859;DHT22;38721;53.098;6.596;2023-04-24T14:33:30;9.20;99.90
52859;DHT22;38721;53.098;6.596;2023-04-24T14:35:55;9.20;99.90
52859;DHT22;38721;53.098;6.596;2023-04-24T14:38:21;9.20;99.90
52859;DHT22;38721;53.098;6.596;2023-04-24T14:40:47;9.10;99.90
52859;DHT22;38721;53.098;6.596;2023-04-24T14:43:13;9.20;99.90
52859;DHT22;38721;53.098;6.596;2023-04-24T14:45:39;9.20;99.90
52859;DHT22;38721;53.098;6.596;2023-04-24T14:48:07;9.50;99.90
52859;DHT22;38721;53.098;6.596;2023-04-24T14:50:33;9.60;99.90
52859;DHT22;38721;53.098;6.596;2023-04-24T14:52:59;9.80;99.90
52859;DHT22;38721;53.098;6.596;2023-04-24T14:55:25;9.70;99.90
52859;DHT22;38721;53.098;6.596;2023-04-24T14:57:51;9.60;99.90
52859;DHT22;38721;53.098;6.596;2023-04-24T15:00:17;9.60;99.90
52859;DHT22;38721;53.098;6.596;2023-04-24T15:02:46;9.80;99.90
52859;DHT22;38721;53.098;6.596;2023-04-24T15:05:14;10.10;99.90
52859;DHT22;38721;53.098;6.596;2023-04-24T15:07:40;10.20;99.90
52859;DHT22;38721;53.098;6.596;2023-04-24T15:10:07;10.30;99.90
52859;DHT22;38721;53.098;6.596;2023-04-24T15:12:33;10.50;99.90
52859;DHT22;38721;53.098;6.596;2023-04-24T15:14:59;10.20;99.90
52859;DHT22;38721;53.098;6.596;2023-04-24T15:17:25;9.90;99.90
52859;DHT22;38721;53.098;6.596;2023-04-24T15:19:51;9.60;99.90
52859;DHT22;38721;53.098;6.596;2023-04-24T15:22:17;9.40;99.90
52859;DHT22;38721;53.098;6.596;2023-04-24T15:24:43;9.40;99.90
52859;DHT22;38721;53.098;6.596;2023-04-24T15:27:10;9.50;99.90
52859;DHT22;38721;53.098;6.596;2023-04-24T15:29:36;9.30;99.90
52859;DHT22;38721;53.098;6.596;2023-04-24T15:32:05;9.30;99.90
52859;DHT22;38721;53.098;6.596;2023-04-24T15:34:31;9.20;99.90
52859;DHT22;38721;53.098;6.596;2023-04-24T15:36:58;9.30;99.90
52859;DHT22;38721;53.098;6.596;2023-04-24T15:39:23;9.30;99.90
52859;DHT22;38721;53.098;6.596;2023-04-24T15:41:52;9.40;99.90